sensor_id;sensor_type;location;lat;lon;timestamp;temperature;humidity
13892;DHT22;7016;48.172;8.058;2022-07-01T00:01:59;17.60;98.00
13892;DHT22;7016;48.172;8.058;2022-07-01T00:04:24;17.60;98.40
13892;DHT22;7016;48.172;8.058;2022-07-01T00:06:53;17.50;98.40
13892;DHT22;7016;48.172;8.058;2022-07-01T00:09:19;17.40;98.20
13892;DHT22;7016;48.172;8.058;2022-07-01T00:11:45;17.30;97.90
13892;DHT22;7016;48.172;8.058;2022-07-01T00:14:11;17.30;97.90
13892;DHT22;7016;48.172;8.058;2022-07-01T00:16:36;17.30;97.60
13892;DHT22;7016;48.172;8.058;2022-07-01T00:19:03;17.20;97.60
13892;DHT22;7016;48.172;8.058;2022-07-01T00:21:29;17.20;97.40
13892;DHT22;7016;48.172;8.058;2022-07-01T00:23:55;17.30;98.00
13892;DHT22;7016;48.172;8.058;2022-07-01T00:26:21;17.30;98.30
13892;DHT22;7016;48.172;8.058;2022-07-01T00:28:47;17.30;98.00
13892;DHT22;7016;48.172;8.058;2022-07-01T00:31:12;17.30;98.30
13892;DHT22;7016;48.172;8.058;2022-07-01T00:33:38;17.20;98.30
13892;DHT22;7016;48.172;8.058;2022-07-01T00:36:04;17.20;98.30
13892;DHT22;7016;48.172;8.058;2022-07-01T00:38:30;17.10;98.30
13892;DHT22;7016;48.172;8.058;2022-07-01T00:40:56;17.10;98.70
13892;DHT22;7016;48.172;8.058;2022-07-01T00:43:22;17.10;98.40
13892;DHT22;7016;48.172;8.058;2022-07-01T00:45:53;17.10;98.30
13892;DHT22;7016;48.172;8.058;2022-07-01T00:48:20;17.10;98.40
13892;DHT22;7016;48.172;8.058;2022-07-01T00:50:46;17.20;98.50
13892;DHT22;7016;48.172;8.058;2022-07-01T00:53:13;17.10;98.50
13892;DHT22;7016;48.172;8.058;2022-07-01T00:55:41;16.80;98.80
13892;DHT22;7016;48.172;8.058;2022-07-01T00:58:08;16.90;99.20
13892;DHT22;7016;48.172;8.058;2022-07-01T01:00:34;16.90;98.90
13892;DHT22;7016;48.172;8.058;2022-07-01T01:03:00;16.80;99.20
13892;DHT22;7016;48.172;8.058;2022-07-01T01:05:25;16.90;99.10
13892;DHT22;7016;48.172;8.058;2022-07-01T01:07:51;17.00;99.30
13892;DHT22;7016;48.172;8.058;2022-07-01T01:10:18;17.00;99.00
13892;DHT22;7016;48.172;8.058;2022-07-01T01:12:44;17.00;98.80
13892;DHT22;7016;48.172;8.058;2022-07-01T01:15:10;17.00;98.70
13892;DHT22;7016;48.172;8.058;2022-07-01T01:17:42;17.00;98.90
13892;DHT22;7016;48.172;8.058;2022-07-01T01:20:08;17.00;99.00
13892;DHT22;7016;48.172;8.058;2022-07-01T01:22:34;17.00;99.00
13892;DHT22;7016;48.172;8.058;2022-07-01T01:25:00;17.10;99.10
13892;DHT22;7016;48.172;8.058;2022-07-01T01:27:25;17.10;98.90
13892;DHT22;7016;48.172;8.058;2022-07-01T01:29:51;17.00;98.60
13892;DHT22;7016;48.172;8.058;2022-07-01T01:32:17;17.00;98.90
13892;DHT22;7016;48.172;8.058;2022-07-01T01:34:43;17.00;99.40
13892;DHT22;7016;48.172;8.058;2022-07-01T01:37:09;17.10;99.30
13892;DHT22;7016;48.172;8.058;2022-07-01T01:39:35;17.10;99.00
13892;DHT22;7016;48.172;8.058;2022-07-01T01:42:04;17.10;99.20
13892;DHT22;7016;48.172;8.058;2022-07-01T01:44:31;17.10;98.70
13892;DHT22;7016;48.172;8.058;2022-07-01T01:46:57;17.10;98.90
13892;DHT22;7016;48.172;8.058;2022-07-01T01:49:23;17.10;99.00
13892;DHT22;7016;48.172;8.058;2022-07-01T01:51:49;17.10;99.00
13892;DHT22;7016;48.172;8.058;2022-07-01T01:54:14;17.10;99.00
13892;DHT22;7016;48.172;8.058;2022-07-01T01:56:40;17.10;98.70
13892;DHT22;7016;48.172;8.058;2022-07-01T01:59:06;17.20;99.00
13892;DHT22;7016;48.172;8.058;2022-07-01T02:01:32;17.20;99.10
13892;DHT22;7016;48.172;8.058;2022-07-01T02:03:58;17.20;98.80
13892;DHT22;7016;48.172;8.058;2022-07-01T02:06:24;17.10;97.80
13892;DHT22;7016;48.172;8.058;2022-07-01T02:08:50;16.90;98.20
13892;DHT22;7016;48.172;8.058;2022-07-01T02:11:16;16.90;97.80
13892;DHT22;7016;48.172;8.058;2022-07-01T02:13:41;16.80;98.10
13892;DHT22;7016;48.172;8.058;2022-07-01T02:16:07;16.70;98.20
13892;DHT22;7016;48.172;8.058;2022-07-01T02:18:33;16.70;98.30
13892;DHT22;7016;48.172;8.058;2022-07-01T02:20:59;16.70;98.50
13892;DHT22;7016;48.172;8.058;2022-07-01T02:23:25;16.70;98.50
13892;DHT22;7016;48.172;8.058;2022-07-01T02:25:51;16.80;98.30
13892;DHT22;7016;48.172;8.058;2022-07-01T02:28:16;16.80;98.20
13892;DHT22;7016;48.172;8.058;2022-07-01T02:30:42;16.80;98.50
13892;DHT22;7016;48.172;8.058;2022-07-01T02:33:08;16.80;98.30
13892;DHT22;7016;48.172;8.058;2022-07-01T02:35:37;16.80;99.10
13892;DHT22;7016;48.172;8.058;2022-07-01T02:38:04;16.90;99.80
13892;DHT22;7016;48.172;8.058;2022-07-01T02:40:30;16.80;99.60
13892;DHT22;7016;48.172;8.058;2022-07-01T02:42:56;16.70;99.40
13892;DHT22;7016;48.172;8.058;2022-07-01T02:45:22;16.70;99.00
13892;DHT22;7016;48.172;8.058;2022-07-01T02:47:51;16.60;99.00
13892;DHT22;7016;48.172;8.058;2022-07-01T02:50:19;16.50;99.10
13892;DHT22;7016;48.172;8.058;2022-07-01T02:52:45;16.50;99.40
13892;DHT22;7016;48.172;8.058;2022-07-01T02:55:12;16.40;99.30
13892;DHT22;7016;48.172;8.058;2022-07-01T02:57:42;16.40;99.80
13892;DHT22;7016;48.172;8.058;2022-07-01T03:00:11;16.20;99.60
13892;DHT22;7016;48.172;8.058;2022-07-01T03:02:37;16.00;99.90
13892;DHT22;7016;48.172;8.058;2022-07-01T03:05:03;15.60;99.90
13892;DHT22;7016;48.172;8.058;2022-07-01T03:07:29;15.50;99.90
13892;DHT22;7016;48.172;8.058;2022-07-01T03:09:56;15.40;99.90
13892;DHT22;7016;48.172;8.058;2022-07-01T03:12:22;15.30;99.90
13892;DHT22;7016;48.172;8.058;2022-07-01T03:14:55;15.30;99.90
13892;DHT22;7016;48.172;8.058;2022-07-01T03:17:22;15.30;99.90
13892;DHT22;7016;48.172;8.058;2022-07-01T03:19:52;15.50;99.90
13892;DHT22;7016;48.172;8.058;2022-07-01T03:22:22;15.50;99.90
13892;DHT22;7016;48.172;8.058;2022-07-01T03:24:49;15.50;99.90
13892;DHT22;7016;48.172;8.058;2022-07-01T03:27:16;15.50;99.90
13892;DHT22;7016;48.172;8.058;2022-07-01T03:29:42;15.60;99.90
13892;DHT22;7016;48.172;8.058;2022-07-01T03:32:08;15.50;99.90
13892;DHT22;7016;48.172;8.058;2022-07-01T03:34:39;15.70;99.90
13892;DHT22;7016;48.172;8.058;2022-07-01T03:37:05;15.70;99.90
13892;DHT22;7016;48.172;8.058;2022-07-01T03:39:32;15.90;99.90
13892;DHT22;7016;48.172;8.058;2022-07-01T03:41:58;15.90;99.90
13892;DHT22;7016;48.172;8.058;2022-07-01T03:44:23;15.90;99.90
13892;DHT22;7016;48.172;8.058;2022-07-01T03:46:49;16.00;99.90
13892;DHT22;7016;48.172;8.058;2022-07-01T03:49:15;16.00;99.90
13892;DHT22;7016;48.172;8.058;2022-07-01T03:51:40;16.00;99.90
13892;DHT22;7016;48.172;8.058;2022-07-01T03:54:06;16.00;99.90
13892;DHT22;7016;48.172;8.058;2022-07-01T03:56:50;16.00;99.90
13892;DHT22;7016;48.172;8.058;2022-07-01T03:59:16;16.10;99.90
13892;DHT22;7016;48.172;8.058;2022-07-01T04:01:45;16.10;99.90
13892;DHT22;7016;48.172;8.058;2022-07-01T04:04:28;16.10;99.90
13892;DHT22;7016;48.172;8.058;2022-07-01T04:07:00;16.00;99.90
13892;DHT22;7016;48.172;8.058;2022-07-01T04:09:28;16.00;99.90
13892;DHT22;7016;48.172;8.058;2022-07-01T04:11:54;16.10;99.90
13892;DHT22;7016;48.172;8.058;2022-07-01T04:14:20;16.10;99.90
13892;DHT22;7016;48.172;8.058;2022-07-01T04:16:46;16.10;99.90
13892;DHT22;7016;48.172;8.058;2022-07-01T04:19:14;16.10;99.90
13892;DHT22;7016;48.172;8.058;2022-07-01T04:21:40;16.10;99.90
13892;DHT22;7016;48.172;8.058;2022-07-01T04:24:24;16.10;99.90
13892;DHT22;7016;48.172;8.058;2022-07-01T04:26:51;16.10;99.90
13892;DHT22;7016;48.172;8.058;2022-07-01T04:29:18;16.00;99.90
13892;DHT22;7016;48.172;8.058;2022-07-01T04:31:44;15.90;99.90
13892;DHT22;7016;48.172;8.058;2022-07-01T04:34:10;15.90;99.90
13892;DHT22;7016;48.172;8.058;2022-07-01T04:36:37;16.00;99.90
13892;DHT22;7016;48.172;8.058;2022-07-01T04:39:04;16.10;99.90
13892;DHT22;7016;48.172;8.058;2022-07-01T04:41:30;16.10;99.90
13892;DHT22;7016;48.172;8.058;2022-07-01T04:44:15;16.00;99.90
13892;DHT22;7016;48.172;8.058;2022-07-01T04:46:41;16.10;99.90
13892;DHT22;7016;48.172;8.058;2022-07-01T04:49:06;16.10;99.90
13892;DHT22;7016;48.172;8.058;2022-07-01T04:51:32;16.10;99.90
13892;DHT22;7016;48.172;8.058;2022-07-01T04:54:01;16.00;99.70
13892;DHT22;7016;48.172;8.058;2022-07-01T04:56:26;16.00;99.60
13892;DHT22;7016;48.172;8.058;2022-07-01T04:58:55;16.00;99.90
13892;DHT22;7016;48.172;8.058;2022-07-01T05:01:20;16.00;99.50
13892;DHT22;7016;48.172;8.058;2022-07-01T05:03:46;16.10;99.60
13892;DHT22;7016;48.172;8.058;2022-07-01T05:06:12;16.10;99.70
13892;DHT22;7016;48.172;8.058;2022-07-01T05:08:37;16.00;99.90
13892;DHT22;7016;48.172;8.058;2022-07-01T05:11:03;16.00;99.90
13892;DHT22;7016;48.172;8.058;2022-07-01T05:13:29;16.00;99.90
13892;DHT22;7016;48.172;8.058;2022-07-01T05:15:54;16.00;99.90
13892;DHT22;7016;48.172;8.058;2022-07-01T05:18:26;16.00;99.90
13892;DHT22;7016;48.172;8.058;2022-07-01T05:21:16;16.00;99.90
13892;DHT22;7016;48.172;8.058;2022-07-01T05:24:04;16.00;99.90
13892;DHT22;7016;48.172;8.058;2022-07-01T05:26:30;16.00;99.90
13892;DHT22;7016;48.172;8.058;2022-07-01T05:28:55;16.00;99.90
13892;DHT22;7016;48.172;8.058;2022-07-01T05:31:21;16.00;99.90
13892;DHT22;7016;48.172;8.058;2022-07-01T05:33:48;16.00;99.90
13892;DHT22;7016;48.172;8.058;2022-07-01T05:36:14;15.90;99.90
13892;DHT22;7016;48.172;8.058;2022-07-01T05:38:41;15.90;99.80
13892;DHT22;7016;48.172;8.058;2022-07-01T05:41:07;15.80;99.90
13892;DHT22;7016;48.172;8.058;2022-07-01T05:43:33;15.70;99.90
13892;DHT22;7016;48.172;8.058;2022-07-01T05:45:59;15.70;99.90
13892;DHT22;7016;48.172;8.058;2022-07-01T05:48:25;15.80;99.90
13892;DHT22;7016;48.172;8.058;2022-07-01T05:50:51;15.90;99.90
13892;DHT22;7016;48.172;8.058;2022-07-01T05:53:18;15.90;99.90
13892;DHT22;7016;48.172;8.058;2022-07-01T05:55:43;15.80;99.90
13892;DHT22;7016;48.172;8.058;2022-07-01T05:58:13;15.80;99.90
13892;DHT22;7016;48.172;8.058;2022-07-01T06:00:39;15.80;99.90
13892;DHT22;7016;48.172;8.058;2022-07-01T06:03:09;15.70;99.90
13892;DHT22;7016;48.172;8.058;2022-07-01T06:05:35;15.70;99.90
13892;DHT22;7016;48.172;8.058;2022-07-01T06:08:02;15.60;99.90
13892;DHT22;7016;48.172;8.058;2022-07-01T06:10:28;15.70;99.90
13892;DHT22;7016;48.172;8.058;2022-07-01T06:12:53;15.70;99.90
13892;DHT22;7016;48.172;8.058;2022-07-01T06:15:19;15.80;99.90
13892;DHT22;7016;48.172;8.058;2022-07-01T06:17:45;15.80;99.90
13892;DHT22;7016;48.172;8.058;2022-07-01T06:20:11;15.80;99.90
13892;DHT22;7016;48.172;8.058;2022-07-01T06:22:36;15.80;99.90
13892;DHT22;7016;48.172;8.058;2022-07-01T06:25:02;15.90;99.90
13892;DHT22;7016;48.172;8.058;2022-07-01T06:27:28;15.90;99.90
13892;DHT22;7016;48.172;8.058;2022-07-01T06:29:54;15.80;99.90
13892;DHT22;7016;48.172;8.058;2022-07-01T06:32:20;15.80;99.90
13892;DHT22;7016;48.172;8.058;2022-07-01T06:34:46;15.80;99.90
13892;DHT22;7016;48.172;8.058;2022-07-01T06:37:13;15.60;99.50
13892;DHT22;7016;48.172;8.058;2022-07-01T06:39:39;15.70;99.50
13892;DHT22;7016;48.172;8.058;2022-07-01T06:42:05;15.60;99.90
13892;DHT22;7016;48.172;8.058;2022-07-01T06:44:34;15.60;99.90
13892;DHT22;7016;48.172;8.058;2022-07-01T06:47:00;15.50;99.90
13892;DHT22;7016;48.172;8.058;2022-07-01T06:49:26;15.40;99.90
13892;DHT22;7016;48.172;8.058;2022-07-01T06:51:51;15.50;99.90
13892;DHT22;7016;48.172;8.058;2022-07-01T06:54:17;15.50;99.90
13892;DHT22;7016;48.172;8.058;2022-07-01T06:56:43;15.60;99.90
13892;DHT22;7016;48.172;8.058;2022-07-01T06:59:09;15.60;99.90
13892;DHT22;7016;48.172;8.058;2022-07-01T07:01:34;15.60;99.90
13892;DHT22;7016;48.172;8.058;2022-07-01T07:04:00;15.60;99.90
13892;DHT22;7016;48.172;8.058;2022-07-01T07:06:26;15.60;99.90
13892;DHT22;7016;48.172;8.058;2022-07-01T07:08:52;15.70;99.90
13892;DHT22;7016;48.172;8.058;2022-07-01T07:11:18;15.70;99.90
13892;DHT22;7016;48.172;8.058;2022-07-01T07:13:45;15.70;99.90
13892;DHT22;7016;48.172;8.058;2022-07-01T07:16:11;15.80;99.90
13892;DHT22;7016;48.172;8.058;2022-07-01T07:18:37;15.90;99.90
13892;DHT22;7016;48.172;8.058;2022-07-01T07:21:03;15.80;99.40
13892;DHT22;7016;48.172;8.058;2022-07-01T07:23:29;15.80;99.60
13892;DHT22;7016;48.172;8.058;2022-07-01T07:25:55;15.80;99.40
13892;DHT22;7016;48.172;8.058;2022-07-01T07:28:21;15.70;99.60
13892;DHT22;7016;48.172;8.058;2022-07-01T07:30:46;15.70;99.20
13892;DHT22;7016;48.172;8.058;2022-07-01T07:33:12;15.60;99.90
13892;DHT22;7016;48.172;8.058;2022-07-01T07:35:38;15.60;99.90
13892;DHT22;7016;48.172;8.058;2022-07-01T07:38:04;15.40;99.90
13892;DHT22;7016;48.172;8.058;2022-07-01T07:40:29;15.50;99.90
13892;DHT22;7016;48.172;8.058;2022-07-01T07:42:55;15.60;99.90
13892;DHT22;7016;48.172;8.058;2022-07-01T07:45:21;15.50;99.90
13892;DHT22;7016;48.172;8.058;2022-07-01T07:47:48;15.60;99.90
13892;DHT22;7016;48.172;8.058;2022-07-01T07:50:15;15.60;99.90
13892;DHT22;7016;48.172;8.058;2022-07-01T07:52:41;15.60;99.90
13892;DHT22;7016;48.172;8.058;2022-07-01T07:55:08;15.90;99.90
13892;DHT22;7016;48.172;8.058;2022-07-01T07:57:39;16.60;99.10
13892;DHT22;7016;48.172;8.058;2022-07-01T08:00:06;16.30;98.80
13892;DHT22;7016;48.172;8.058;2022-07-01T08:02:33;16.40;98.70
13892;DHT22;7016;48.172;8.058;2022-07-01T08:04:59;16.00;98.70
13892;DHT22;7016;48.172;8.058;2022-07-01T08:07:24;15.80;99.10
13892;DHT22;7016;48.172;8.058;2022-07-01T08:09:50;15.80;99.60
13892;DHT22;7016;48.172;8.058;2022-07-01T08:12:16;15.80;99.90
13892;DHT22;7016;48.172;8.058;2022-07-01T08:14:43;15.90;99.90
13892;DHT22;7016;48.172;8.058;2022-07-01T08:17:09;16.30;99.20
13892;DHT22;7016;48.172;8.058;2022-07-01T08:19:35;16.30;99.10
13892;DHT22;7016;48.172;8.058;2022-07-01T08:22:01;16.00;99.20
13892;DHT22;7016;48.172;8.058;2022-07-01T08:24:26;15.90;99.70
13892;DHT22;7016;48.172;8.058;2022-07-01T08:26:52;15.80;99.80
13892;DHT22;7016;48.172;8.058;2022-07-01T08:29:19;15.80;99.90
13892;DHT22;7016;48.172;8.058;2022-07-01T08:31:44;15.80;99.70
13892;DHT22;7016;48.172;8.058;2022-07-01T08:34:10;15.90;99.80
13892;DHT22;7016;48.172;8.058;2022-07-01T08:36:36;15.80;99.90
13892;DHT22;7016;48.172;8.058;2022-07-01T08:39:02;15.80;99.70
13892;DHT22;7016;48.172;8.058;2022-07-01T08:41:28;15.70;99.90
13892;DHT22;7016;48.172;8.058;2022-07-01T08:43:54;15.90;99.90
13892;DHT22;7016;48.172;8.058;2022-07-01T08:46:21;15.80;99.40
13892;DHT22;7016;48.172;8.058;2022-07-01T08:48:47;15.80;99.20
13892;DHT22;7016;48.172;8.058;2022-07-01T08:51:14;15.80;99.20
13892;DHT22;7016;48.172;8.058;2022-07-01T08:53:40;15.80;99.90
13892;DHT22;7016;48.172;8.058;2022-07-01T08:56:05;15.90;99.90
13892;DHT22;7016;48.172;8.058;2022-07-01T08:58:50;16.00;99.90
13892;DHT22;7016;48.172;8.058;2022-07-01T09:01:17;15.90;99.90
13892;DHT22;7016;48.172;8.058;2022-07-01T09:03:47;15.90;99.60
13892;DHT22;7016;48.172;8.058;2022-07-01T09:08:40;15.70;99.10
13892;DHT22;7016;48.172;8.058;2022-07-01T09:13:43;15.60;99.80
13892;DHT22;7016;48.172;8.058;2022-07-01T09:16:14;15.70;99.40
13892;DHT22;7016;48.172;8.058;2022-07-01T09:18:40;15.80;99.90
13892;DHT22;7016;48.172;8.058;2022-07-01T09:21:13;15.90;99.90
13892;DHT22;7016;48.172;8.058;2022-07-01T09:23:40;16.10;99.70
13892;DHT22;7016;48.172;8.058;2022-07-01T09:26:05;16.20;99.30
13892;DHT22;7016;48.172;8.058;2022-07-01T09:28:32;16.20;99.10
13892;DHT22;7016;48.172;8.058;2022-07-01T09:30:58;16.30;99.90
13892;DHT22;7016;48.172;8.058;2022-07-01T09:33:28;16.30;98.80
13892;DHT22;7016;48.172;8.058;2022-07-01T09:35:57;16.40;98.40
13892;DHT22;7016;48.172;8.058;2022-07-01T09:38:24;16.50;98.80
13892;DHT22;7016;48.172;8.058;2022-07-01T09:43:26;16.80;97.10
13892;DHT22;7016;48.172;8.058;2022-07-01T09:46:12;17.20;97.20
13892;DHT22;7016;48.172;8.058;2022-07-01T09:51:09;17.10;96.90
13892;DHT22;7016;48.172;8.058;2022-07-01T09:53:35;16.90;96.20
13892;DHT22;7016;48.172;8.058;2022-07-01T09:56:01;16.90;97.10
13892;DHT22;7016;48.172;8.058;2022-07-01T09:58:27;16.90;97.50
13892;DHT22;7016;48.172;8.058;2022-07-01T10:00:53;16.80;96.90
13892;DHT22;7016;48.172;8.058;2022-07-01T10:03:20;17.00;97.10
13892;DHT22;7016;48.172;8.058;2022-07-01T10:05:53;17.20;97.10
13892;DHT22;7016;48.172;8.058;2022-07-01T10:13:52;17.20;95.50
13892;DHT22;7016;48.172;8.058;2022-07-01T10:16:19;17.00;95.90
13892;DHT22;7016;48.172;8.058;2022-07-01T10:18:45;17.10;98.10
13892;DHT22;7016;48.172;8.058;2022-07-01T10:21:26;17.00;95.90
13892;DHT22;7016;48.172;8.058;2022-07-01T10:23:52;17.20;97.30
13892;DHT22;7016;48.172;8.058;2022-07-01T10:26:19;17.20;95.90
13892;DHT22;7016;48.172;8.058;2022-07-01T10:28:45;17.20;96.50
13892;DHT22;7016;48.172;8.058;2022-07-01T10:31:17;17.20;96.90
13892;DHT22;7016;48.172;8.058;2022-07-01T10:44:19;17.70;96.00
13892;DHT22;7016;48.172;8.058;2022-07-01T10:46:59;17.70;95.40
13892;DHT22;7016;48.172;8.058;2022-07-01T10:52:10;17.60;96.00
13892;DHT22;7016;48.172;8.058;2022-07-01T10:59:45;17.50;97.10
13892;DHT22;7016;48.172;8.058;2022-07-01T11:02:22;17.30;96.70
13892;DHT22;7016;48.172;8.058;2022-07-01T11:04:51;17.40;97.50
13892;DHT22;7016;48.172;8.058;2022-07-01T11:07:19;17.50;96.90
13892;DHT22;7016;48.172;8.058;2022-07-01T11:09:45;17.60;96.10
13892;DHT22;7016;48.172;8.058;2022-07-01T11:12:11;17.60;96.30
13892;DHT22;7016;48.172;8.058;2022-07-01T11:14:40;17.60;96.00
13892;DHT22;7016;48.172;8.058;2022-07-01T11:17:10;17.70;95.20
13892;DHT22;7016;48.172;8.058;2022-07-01T11:19:36;17.70;95.90
13892;DHT22;7016;48.172;8.058;2022-07-01T11:22:02;17.70;95.50
13892;DHT22;7016;48.172;8.058;2022-07-01T11:24:28;17.80;94.30
13892;DHT22;7016;48.172;8.058;2022-07-01T11:27:06;17.80;94.80
13892;DHT22;7016;48.172;8.058;2022-07-01T11:29:33;18.00;95.20
13892;DHT22;7016;48.172;8.058;2022-07-01T11:31:59;18.30;94.90
13892;DHT22;7016;48.172;8.058;2022-07-01T11:34:27;18.30;95.00
13892;DHT22;7016;48.172;8.058;2022-07-01T11:36:55;18.30;93.70
13892;DHT22;7016;48.172;8.058;2022-07-01T11:39:40;18.30;93.10
13892;DHT22;7016;48.172;8.058;2022-07-01T11:42:08;18.50;93.70
13892;DHT22;7016;48.172;8.058;2022-07-01T11:44:36;18.50;93.30
13892;DHT22;7016;48.172;8.058;2022-07-01T11:47:08;18.40;93.10
13892;DHT22;7016;48.172;8.058;2022-07-01T11:49:39;18.30;92.90
13892;DHT22;7016;48.172;8.058;2022-07-01T11:52:08;18.30;92.90
13892;DHT22;7016;48.172;8.058;2022-07-01T11:54:45;18.40;92.30
13892;DHT22;7016;48.172;8.058;2022-07-01T11:57:15;18.50;92.70
13892;DHT22;7016;48.172;8.058;2022-07-01T11:59:42;18.50;91.10
13892;DHT22;7016;48.172;8.058;2022-07-01T12:02:11;18.60;90.80
13892;DHT22;7016;48.172;8.058;2022-07-01T12:04:38;18.50;90.60
13892;DHT22;7016;48.172;8.058;2022-07-01T12:07:05;18.40;90.70
13892;DHT22;7016;48.172;8.058;2022-07-01T12:09:31;18.40;90.10
13892;DHT22;7016;48.172;8.058;2022-07-01T12:11:57;18.50;90.60
13892;DHT22;7016;48.172;8.058;2022-07-01T12:14:32;18.70;90.50
13892;DHT22;7016;48.172;8.058;2022-07-01T12:17:05;19.00;92.00
13892;DHT22;7016;48.172;8.058;2022-07-01T12:19:39;19.10;91.70
13892;DHT22;7016;48.172;8.058;2022-07-01T12:22:08;19.10;91.20
13892;DHT22;7016;48.172;8.058;2022-07-01T12:24:34;19.10;91.10
13892;DHT22;7016;48.172;8.058;2022-07-01T12:32:00;19.20;90.70
13892;DHT22;7016;48.172;8.058;2022-07-01T12:34:41;19.40;89.50
13892;DHT22;7016;48.172;8.058;2022-07-01T12:37:09;19.50;90.10
13892;DHT22;7016;48.172;8.058;2022-07-01T12:39:43;19.50;90.30
13892;DHT22;7016;48.172;8.058;2022-07-01T12:43:01;19.40;88.20
13892;DHT22;7016;48.172;8.058;2022-07-01T12:45:10;19.30;90.50
13892;DHT22;7016;48.172;8.058;2022-07-01T12:47:46;19.30;90.90
13892;DHT22;7016;48.172;8.058;2022-07-01T12:52:55;19.40;90.60
13892;DHT22;7016;48.172;8.058;2022-07-01T12:55:22;19.50;91.60
13892;DHT22;7016;48.172;8.058;2022-07-01T12:57:56;19.50;91.60
13892;DHT22;7016;48.172;8.058;2022-07-01T13:00:23;19.60;91.70
13892;DHT22;7016;48.172;8.058;2022-07-01T13:02:53;19.60;91.90
13892;DHT22;7016;48.172;8.058;2022-07-01T13:05:19;19.60;91.40
13892;DHT22;7016;48.172;8.058;2022-07-01T13:07:45;19.60;90.80
13892;DHT22;7016;48.172;8.058;2022-07-01T13:10:12;19.60;88.10
13892;DHT22;7016;48.172;8.058;2022-07-01T13:12:37;19.70;85.20
13892;DHT22;7016;48.172;8.058;2022-07-01T13:15:04;19.80;87.10
13892;DHT22;7016;48.172;8.058;2022-07-01T13:17:29;19.70;83.40
13892;DHT22;7016;48.172;8.058;2022-07-01T13:19:55;19.70;85.70
13892;DHT22;7016;48.172;8.058;2022-07-01T13:22:21;19.80;88.90
13892;DHT22;7016;48.172;8.058;2022-07-01T13:24:47;19.90;89.20
13892;DHT22;7016;48.172;8.058;2022-07-01T13:27:13;20.10;87.80
13892;DHT22;7016;48.172;8.058;2022-07-01T13:29:39;20.10;87.30
13892;DHT22;7016;48.172;8.058;2022-07-01T13:32:05;20.20;87.70
13892;DHT22;7016;48.172;8.058;2022-07-01T13:34:33;20.10;88.50
13892;DHT22;7016;48.172;8.058;2022-07-01T13:36:59;20.10;83.40
13892;DHT22;7016;48.172;8.058;2022-07-01T13:39:25;19.90;81.60
13892;DHT22;7016;48.172;8.058;2022-07-01T13:41:50;20.00;84.30
13892;DHT22;7016;48.172;8.058;2022-07-01T13:44:16;20.00;82.70
13892;DHT22;7016;48.172;8.058;2022-07-01T13:46:42;20.00;83.60
13892;DHT22;7016;48.172;8.058;2022-07-01T13:49:07;19.90;82.70
13892;DHT22;7016;48.172;8.058;2022-07-01T13:51:33;20.00;83.20
13892;DHT22;7016;48.172;8.058;2022-07-01T13:54:00;20.20;84.90
13892;DHT22;7016;48.172;8.058;2022-07-01T13:56:26;20.40;83.10
13892;DHT22;7016;48.172;8.058;2022-07-01T13:58:53;20.40;80.50
13892;DHT22;7016;48.172;8.058;2022-07-01T14:01:20;20.50;81.60
13892;DHT22;7016;48.172;8.058;2022-07-01T14:03:48;20.50;78.10
13892;DHT22;7016;48.172;8.058;2022-07-01T14:06:14;20.60;78.10
13892;DHT22;7016;48.172;8.058;2022-07-01T14:08:40;20.50;74.40
13892;DHT22;7016;48.172;8.058;2022-07-01T14:11:06;20.50;76.40
13892;DHT22;7016;48.172;8.058;2022-07-01T14:13:32;20.60;78.10
13892;DHT22;7016;48.172;8.058;2022-07-01T14:16:01;20.70;78.90
13892;DHT22;7016;48.172;8.058;2022-07-01T14:18:27;20.80;75.90
13892;DHT22;7016;48.172;8.058;2022-07-01T14:20:53;20.70;76.80
13892;DHT22;7016;48.172;8.058;2022-07-01T14:23:19;20.90;79.10
13892;DHT22;7016;48.172;8.058;2022-07-01T14:25:44;20.90;74.10
13892;DHT22;7016;48.172;8.058;2022-07-01T14:28:11;20.80;73.00
13892;DHT22;7016;48.172;8.058;2022-07-01T14:30:38;20.80;74.50
13892;DHT22;7016;48.172;8.058;2022-07-01T14:33:04;20.80;76.90
13892;DHT22;7016;48.172;8.058;2022-07-01T14:35:30;20.80;73.10
13892;DHT22;7016;48.172;8.058;2022-07-01T14:37:56;20.90;75.30
13892;DHT22;7016;48.172;8.058;2022-07-01T14:40:22;21.00;71.30
13892;DHT22;7016;48.172;8.058;2022-07-01T14:42:49;20.90;72.70
13892;DHT22;7016;48.172;8.058;2022-07-01T14:45:14;20.80;74.00
13892;DHT22;7016;48.172;8.058;2022-07-01T14:47:41;20.90;74.80
13892;DHT22;7016;48.172;8.058;2022-07-01T14:50:07;20.90;78.40
13892;DHT22;7016;48.172;8.058;2022-07-01T14:52:33;20.90;72.10
13892;DHT22;7016;48.172;8.058;2022-07-01T14:54:59;20.90;78.20
13892;DHT22;7016;48.172;8.058;2022-07-01T14:57:25;20.90;71.60
13892;DHT22;7016;48.172;8.058;2022-07-01T14:59:51;20.80;72.60
13892;DHT22;7016;48.172;8.058;2022-07-01T15:02:17;20.80;73.40
13892;DHT22;7016;48.172;8.058;2022-07-01T15:04:43;20.80;75.30
13892;DHT22;7016;48.172;8.058;2022-07-01T15:07:09;20.80;72.00
13892;DHT22;7016;48.172;8.058;2022-07-01T15:09:34;20.80;73.10
13892;DHT22;7016;48.172;8.058;2022-07-01T15:12:00;20.90;78.80
13892;DHT22;7016;48.172;8.058;2022-07-01T15:14:26;20.90;79.70
13892;DHT22;7016;48.172;8.058;2022-07-01T15:16:52;21.00;81.00
13892;DHT22;7016;48.172;8.058;2022-07-01T15:19:18;20.90;75.90
13892;DHT22;7016;48.172;8.058;2022-07-01T15:21:43;20.90;78.20
13892;DHT22;7016;48.172;8.058;2022-07-01T15:24:09;21.00;81.00
13892;DHT22;7016;48.172;8.058;2022-07-01T15:26:35;20.90;81.90
13892;DHT22;7016;48.172;8.058;2022-07-01T15:29:01;20.90;80.60
13892;DHT22;7016;48.172;8.058;2022-07-01T15:31:27;20.90;84.20
13892;DHT22;7016;48.172;8.058;2022-07-01T15:33:53;20.90;85.20
13892;DHT22;7016;48.172;8.058;2022-07-01T15:36:20;20.90;85.20
13892;DHT22;7016;48.172;8.058;2022-07-01T15:38:45;21.00;87.30
13892;DHT22;7016;48.172;8.058;2022-07-01T15:41:11;20.90;88.20
13892;DHT22;7016;48.172;8.058;2022-07-01T15:43:37;20.90;87.30
13892;DHT22;7016;48.172;8.058;2022-07-01T15:46:06;20.90;87.20
13892;DHT22;7016;48.172;8.058;2022-07-01T15:48:32;21.00;87.40
13892;DHT22;7016;48.172;8.058;2022-07-01T15:50:58;21.00;85.60
13892;DHT22;7016;48.172;8.058;2022-07-01T15:53:24;20.90;83.00
13892;DHT22;7016;48.172;8.058;2022-07-01T15:55:50;20.90;83.90
13892;DHT22;7016;48.172;8.058;2022-07-01T15:58:18;20.90;82.40
13892;DHT22;7016;48.172;8.058;2022-07-01T16:00:47;20.80;82.50
13892;DHT22;7016;48.172;8.058;2022-07-01T16:03:14;20.70;83.50
13892;DHT22;7016;48.172;8.058;2022-07-01T16:05:44;20.60;83.70
13892;DHT22;7016;48.172;8.058;2022-07-01T16:08:16;20.60;85.00
13892;DHT22;7016;48.172;8.058;2022-07-01T16:10:46;20.70;85.20
13892;DHT22;7016;48.172;8.058;2022-07-01T16:13:16;20.50;84.60
13892;DHT22;7016;48.172;8.058;2022-07-01T16:15:49;20.70;86.50
13892;DHT22;7016;48.172;8.058;2022-07-01T16:18:16;20.70;85.60
13892;DHT22;7016;48.172;8.058;2022-07-01T16:20:46;20.50;83.40
13892;DHT22;7016;48.172;8.058;2022-07-01T16:23:19;20.50;85.30
13892;DHT22;7016;48.172;8.058;2022-07-01T16:25:46;20.60;84.70
13892;DHT22;7016;48.172;8.058;2022-07-01T16:28:12;20.70;84.60